createdAt,value
2018-11-25T00:00:23.383Z,100.00
2018-11-25T00:01:28.151Z,100.00
2018-11-25T00:02:32.847Z,100.00
2018-11-25T00:03:38.214Z,100.00
2018-11-25T00:04:43.829Z,100.00
2018-11-25T00:05:49.181Z,100.00
2018-11-25T00:06:54.138Z,100.00
2018-11-25T00:07:58.987Z,100.00
2018-11-25T00:09:04.415Z,100.00
2018-11-25T00:10:09.351Z,100.00
2018-11-25T00:11:14.855Z,100.00
2018-11-25T00:12:19.550Z,100.00
2018-11-25T00:13:24.202Z,100.00
2018-11-25T00:14:29.070Z,100.00
2018-11-25T00:15:33.912Z,100.00
2018-11-25T00:16:39.486Z,100.00
2018-11-25T00:17:45.037Z,100.00
2018-11-25T00:18:50.663Z,100.00
2018-11-25T00:19:56.199Z,100.00
2018-11-25T00:21:01.187Z,100.00
2018-11-25T00:22:06.967Z,100.00
2018-11-25T00:23:12.200Z,100.00
2018-11-25T00:24:17.101Z,100.00
2018-11-25T00:25:21.671Z,100.00
2018-11-25T00:26:26.454Z,100.00
2018-11-25T00:27:31.858Z,100.00
2018-11-25T00:28:39.755Z,100.00
2018-11-25T00:29:46.356Z,100.00
2018-11-25T00:30:50.955Z,100.00
2018-11-25T00:31:56.812Z,100.00
2018-11-25T00:33:01.586Z,100.00
2018-11-25T00:34:06.346Z,100.00
2018-11-25T00:35:11.938Z,100.00
2018-11-25T00:36:16.854Z,100.00
2018-11-25T00:37:21.892Z,100.00
2018-11-25T00:38:26.504Z,100.00
2018-11-25T00:39:32.559Z,100.00
2018-11-25T00:40:37.257Z,100.00
2018-11-25T00:41:41.882Z,100.00
2018-11-25T00:42:47.212Z,100.00
2018-11-25T00:43:53.351Z,100.00
2018-11-25T00:44:59.430Z,100.00
2018-11-25T00:46:04.371Z,100.00
2018-11-25T00:47:10.062Z,100.00
2018-11-25T00:48:15.140Z,100.00
2018-11-25T00:49:20.377Z,100.00
2018-11-25T00:50:25.117Z,100.00
2018-11-25T00:51:30.500Z,100.00
2018-11-25T00:52:35.168Z,100.00
2018-11-25T00:53:40.561Z,100.00
2018-11-25T00:54:46.459Z,100.00
2018-11-25T00:55:51.372Z,100.00
2018-11-25T00:56:56.052Z,100.00
2018-11-25T00:58:00.721Z,100.00
2018-11-25T00:59:05.484Z,100.00
2018-11-25T01:00:11.193Z,100.00
2018-11-25T01:01:15.821Z,100.00
2018-11-25T01:02:20.990Z,100.00
2018-11-25T01:03:25.605Z,100.00
2018-11-25T01:04:30.454Z,100.00
2018-11-25T01:05:35.301Z,100.00
2018-11-25T01:06:40.148Z,100.00
2018-11-25T01:07:46.408Z,100.00
2018-11-25T01:08:51.333Z,100.00
2018-11-25T01:09:56.113Z,100.00
2018-11-25T01:11:00.862Z,100.00
2018-11-25T01:12:05.500Z,100.00
2018-11-25T01:13:10.623Z,100.00
2018-11-25T01:14:15.484Z,100.00
2018-11-25T01:15:20.552Z,100.00
2018-11-25T01:16:25.220Z,100.00
2018-11-25T01:17:30.121Z,100.00
2018-11-25T01:18:36.325Z,100.00
2018-11-25T01:19:41.490Z,100.00
2018-11-25T01:20:47.392Z,100.00
2018-11-25T01:21:52.923Z,100.00
2018-11-25T01:22:57.788Z,100.00
2018-11-25T01:24:02.439Z,100.00
2018-11-25T01:25:08.341Z,100.00
2018-11-25T01:26:12.936Z,100.00
2018-11-25T01:27:18.728Z,100.00
2018-11-25T01:28:23.884Z,100.00
2018-11-25T01:29:28.480Z,100.00
2018-11-25T01:30:33.109Z,100.00
2018-11-25T01:31:38.375Z,100.00
2018-11-25T01:32:44.346Z,100.00
2018-11-25T01:33:48.940Z,100.00
2018-11-25T01:35:00.868Z,100.00
2018-11-25T01:35:59.305Z,100.00
2018-11-25T01:37:04.093Z,100.00
2018-11-25T01:38:09.345Z,100.00
2018-11-25T01:39:14.620Z,100.00
2018-11-25T01:40:20.783Z,100.00
2018-11-25T01:41:27.010Z,100.00
2018-11-25T01:42:31.637Z,100.00
2018-11-25T01:43:36.548Z,100.00
2018-11-25T01:44:41.174Z,100.00
2018-11-25T01:45:45.755Z,100.00
2018-11-25T01:46:50.375Z,100.00
2018-11-25T01:47:55.349Z,100.00
2018-11-25T01:48:59.912Z,100.00
2018-11-25T01:50:04.760Z,100.00
2018-11-25T01:51:09.367Z,100.00
2018-11-25T01:52:14.058Z,100.00
2018-11-25T01:53:18.723Z,100.00
2018-11-25T01:54:24.368Z,100.00
2018-11-25T01:55:29.848Z,100.00
2018-11-25T01:56:34.446Z,100.00
2018-11-25T01:57:39.088Z,100.00
2018-11-25T01:58:43.680Z,100.00
2018-11-25T01:59:48.940Z,100.00
2018-11-25T02:00:55.717Z,100.00
2018-11-25T02:02:00.399Z,100.00
2018-11-25T02:03:05.007Z,100.00
2018-11-25T02:04:09.635Z,100.00
2018-11-25T02:05:14.406Z,100.00
2018-11-25T02:06:19.097Z,100.00
2018-11-25T02:07:23.704Z,100.00
2018-11-25T02:08:28.332Z,100.00
2018-11-25T02:09:32.916Z,100.00
2018-11-25T02:10:38.768Z,100.00
2018-11-25T02:11:43.774Z,100.00
2018-11-25T02:12:49.691Z,100.00
2018-11-25T02:13:55.255Z,100.00
2018-11-25T02:14:59.839Z,100.00
2018-11-25T02:16:04.793Z,100.00
2018-11-25T02:17:09.428Z,100.00
2018-11-25T02:18:14.003Z,100.00
2018-11-25T02:19:18.581Z,100.00
2018-11-25T02:20:24.051Z,100.00
2018-11-25T02:21:29.219Z,100.00
2018-11-25T02:22:34.047Z,100.00
2018-11-25T02:23:38.774Z,100.00
2018-11-25T02:24:44.141Z,100.00
2018-11-25T02:25:48.807Z,100.00
2018-11-25T02:26:53.893Z,100.00
2018-11-25T02:27:58.802Z,100.00
2018-11-25T02:29:03.396Z,100.00
2018-11-25T02:30:09.802Z,100.00
2018-11-25T02:31:16.186Z,100.00
2018-11-25T02:32:21.920Z,100.00
2018-11-25T02:33:27.086Z,100.00
2018-11-25T02:34:31.683Z,100.00
2018-11-25T02:35:36.555Z,100.00
2018-11-25T02:36:41.179Z,100.00
2018-11-25T02:37:45.975Z,100.00
2018-11-25T02:38:50.598Z,100.00
2018-11-25T02:39:55.507Z,100.00
2018-11-25T02:41:00.123Z,100.00
2018-11-25T02:42:05.341Z,100.00
2018-11-25T02:43:10.081Z,100.00
2018-11-25T02:44:14.696Z,100.00
2018-11-25T02:45:23.029Z,100.00
2018-11-25T02:46:27.917Z,100.00
2018-11-25T02:47:33.572Z,100.00
2018-11-25T02:48:38.320Z,100.00
2018-11-25T02:49:43.092Z,100.00
2018-11-25T02:50:47.836Z,100.00
2018-11-25T02:51:52.416Z,100.00
2018-11-25T02:52:58.048Z,100.00
2018-11-25T02:54:03.083Z,100.00
2018-11-25T02:55:07.798Z,100.00
2018-11-25T02:56:12.442Z,100.00
2018-11-25T02:57:21.145Z,100.00
2018-11-25T02:58:25.875Z,100.00
2018-11-25T02:59:31.011Z,100.00
2018-11-25T03:00:35.812Z,100.00
2018-11-25T03:01:40.482Z,100.00
2018-11-25T03:02:45.161Z,100.00
2018-11-25T03:03:49.853Z,100.00
2018-11-25T03:04:54.830Z,100.00
2018-11-25T03:06:00.353Z,100.00
2018-11-25T03:07:05.026Z,100.00
2018-11-25T03:08:09.602Z,100.00
2018-11-25T03:09:14.365Z,100.00
2018-11-25T03:10:19.374Z,100.00
2018-11-25T03:11:23.958Z,100.00
2018-11-25T03:12:28.997Z,100.00
2018-11-25T03:13:33.722Z,100.00
2018-11-25T03:14:38.825Z,100.00
2018-11-25T03:15:43.723Z,100.00
2018-11-25T03:16:48.930Z,100.00
2018-11-25T03:17:53.842Z,100.00
2018-11-25T03:18:58.934Z,100.00
2018-11-25T03:20:03.960Z,100.00
2018-11-25T03:21:08.598Z,100.00
2018-11-25T03:22:13.726Z,100.00
2018-11-25T03:23:18.431Z,100.00
2018-11-25T03:24:23.324Z,100.00
2018-11-25T03:25:28.514Z,100.00
2018-11-25T03:26:33.097Z,100.00
2018-11-25T03:27:37.606Z,100.00
2018-11-25T03:28:42.881Z,100.00
2018-11-25T03:29:47.455Z,100.00
2018-11-25T03:30:53.047Z,100.00
2018-11-25T03:31:58.294Z,100.00
2018-11-25T03:33:02.891Z,100.00
2018-11-25T03:34:07.451Z,100.00
2018-11-25T03:35:12.602Z,100.00
2018-11-25T03:36:17.219Z,100.00
2018-11-25T03:37:22.040Z,100.00
2018-11-25T03:38:27.151Z,100.00
2018-11-25T03:39:32.024Z,100.00
2018-11-25T03:40:36.734Z,100.00
2018-11-25T03:41:41.545Z,100.00
2018-11-25T03:42:46.391Z,100.00
2018-11-25T03:43:51.372Z,100.00
2018-11-25T03:44:56.264Z,100.00
2018-11-25T03:46:00.787Z,100.00
2018-11-25T03:47:05.549Z,100.00
2018-11-25T03:48:10.115Z,100.00
2018-11-25T03:49:14.904Z,100.00
2018-11-25T03:50:19.531Z,100.00
2018-11-25T03:51:24.407Z,100.00
2018-11-25T03:52:29.154Z,100.00
2018-11-25T03:53:33.805Z,100.00
2018-11-25T03:54:38.508Z,100.00
2018-11-25T03:55:43.197Z,100.00
2018-11-25T03:56:47.823Z,100.00
2018-11-25T03:57:52.985Z,100.00
2018-11-25T03:58:57.726Z,100.00
2018-11-25T04:00:02.405Z,100.00
2018-11-25T04:01:06.968Z,100.00
2018-11-25T04:02:11.655Z,100.00
2018-11-25T04:03:16.837Z,100.00
2018-11-25T04:04:21.860Z,100.00
2018-11-25T04:05:26.967Z,100.00
2018-11-25T04:06:31.658Z,100.00
2018-11-25T04:07:36.308Z,100.00
2018-11-25T04:08:40.866Z,100.00
2018-11-25T04:09:45.444Z,100.00
2018-11-25T04:10:50.326Z,100.00
2018-11-25T04:11:55.053Z,100.00
2018-11-25T04:12:59.637Z,100.00
2018-11-25T04:14:04.238Z,100.00
2018-11-25T04:15:12.006Z,100.00
2018-11-25T04:16:16.561Z,100.00
2018-11-25T04:17:21.464Z,100.00
2018-11-25T04:18:26.170Z,100.00
2018-11-25T04:19:30.937Z,100.00
2018-11-25T04:20:35.505Z,100.00
2018-11-25T04:21:40.017Z,100.00
2018-11-25T04:22:44.744Z,100.00
2018-11-25T04:23:50.073Z,100.00
2018-11-25T04:24:54.738Z,100.00
2018-11-25T04:25:59.380Z,100.00
2018-11-25T04:27:03.996Z,100.00
2018-11-25T04:28:08.570Z,100.00
2018-11-25T04:29:13.446Z,100.00
2018-11-25T04:30:18.605Z,100.00
2018-11-25T04:31:23.371Z,100.00
2018-11-25T04:32:28.120Z,100.00
2018-11-25T04:33:32.698Z,100.00
2018-11-25T04:34:37.314Z,100.00
2018-11-25T04:35:42.335Z,100.00
2018-11-25T04:36:47.010Z,100.00
2018-11-25T04:37:52.074Z,100.00
2018-11-25T04:38:57.243Z,100.00
2018-11-25T04:40:01.864Z,100.00
2018-11-25T04:41:06.560Z,100.00
2018-11-25T04:42:11.615Z,100.00
2018-11-25T04:43:16.164Z,100.00
2018-11-25T04:44:20.846Z,100.00
2018-11-25T04:45:25.357Z,100.00
2018-11-25T04:46:29.891Z,100.00
2018-11-25T04:47:35.326Z,100.00
2018-11-25T04:48:40.233Z,100.00
2018-11-25T04:49:45.115Z,100.00
2018-11-25T04:50:49.993Z,100.00
2018-11-25T04:51:54.499Z,100.00
2018-11-25T04:52:59.024Z,100.00
2018-11-25T04:54:03.893Z,100.00
2018-11-25T04:55:09.141Z,100.00
2018-11-25T04:56:13.651Z,100.00
2018-11-25T04:57:18.194Z,100.00
2018-11-25T04:58:23.064Z,100.00
2018-11-25T04:59:28.307Z,100.00
2018-11-25T05:00:32.867Z,100.00
2018-11-25T05:01:37.753Z,100.00
2018-11-25T05:02:42.303Z,100.00
2018-11-25T05:03:46.910Z,100.00
2018-11-25T05:04:51.867Z,100.00
2018-11-25T05:05:56.854Z,100.00
2018-11-25T05:07:04.892Z,100.00
2018-11-25T05:08:09.949Z,100.00
2018-11-25T05:09:14.800Z,100.00
2018-11-25T05:10:19.794Z,100.00
2018-11-25T05:11:24.358Z,100.00
2018-11-25T05:12:29.000Z,100.00
2018-11-25T05:13:33.850Z,100.00
2018-11-25T05:14:38.691Z,100.00
2018-11-25T05:15:43.255Z,100.00
2018-11-25T05:16:48.151Z,100.00
2018-11-25T05:17:52.677Z,100.00
2018-11-25T05:18:57.416Z,100.00
2018-11-25T05:20:02.027Z,100.00
2018-11-25T05:21:07.938Z,100.00
2018-11-25T05:22:12.498Z,100.00
2018-11-25T05:23:17.087Z,100.00
2018-11-25T05:24:21.773Z,100.00
2018-11-25T05:25:26.785Z,100.00
2018-11-25T05:26:31.431Z,100.00
2018-11-25T05:27:36.655Z,100.00
2018-11-25T05:28:41.276Z,100.00
2018-11-25T05:29:45.985Z,100.00
2018-11-25T05:30:50.706Z,100.00
2018-11-25T05:31:55.750Z,100.00
2018-11-25T05:33:00.298Z,100.00
2018-11-25T05:34:05.318Z,100.00
2018-11-25T05:35:10.514Z,100.00
2018-11-25T05:36:15.035Z,100.00
2018-11-25T05:37:19.730Z,100.00
2018-11-25T05:38:24.426Z,100.00
2018-11-25T05:39:29.052Z,100.00
2018-11-25T05:40:34.096Z,100.00
2018-11-25T05:41:38.607Z,100.00
2018-11-25T05:42:43.378Z,100.00
2018-11-25T05:43:47.894Z,100.00
2018-11-25T05:44:52.594Z,100.00
2018-11-25T05:45:57.212Z,100.00
2018-11-25T05:47:02.063Z,100.00
2018-11-25T05:48:06.662Z,100.00
2018-11-25T05:49:11.176Z,100.00
2018-11-25T05:50:16.371Z,100.00
2018-11-25T05:51:20.956Z,100.00
2018-11-25T05:52:25.496Z,100.00
2018-11-25T05:53:30.317Z,100.00
2018-11-25T05:54:34.859Z,100.00
2018-11-25T05:55:39.442Z,100.00
2018-11-25T05:56:43.938Z,100.00
2018-11-25T05:57:48.617Z,100.00
2018-11-25T05:58:53.151Z,100.00
2018-11-25T05:59:58.251Z,100.00
2018-11-25T06:01:02.848Z,100.00
2018-11-25T06:02:07.414Z,100.00
2018-11-25T06:03:12.071Z,100.00
2018-11-25T06:04:16.745Z,100.00
2018-11-25T06:05:21.308Z,100.00
2018-11-25T06:06:27.080Z,100.00
2018-11-25T06:07:31.629Z,100.00
2018-11-25T06:08:36.340Z,100.00
2018-11-25T06:09:41.045Z,100.00
2018-11-25T06:10:45.724Z,100.00
2018-11-25T06:11:50.338Z,100.00
2018-11-25T06:12:55.609Z,100.00
2018-11-25T06:14:01.336Z,100.00
2018-11-25T06:15:06.861Z,100.00
2018-11-25T06:16:11.586Z,100.00
2018-11-25T06:17:16.099Z,100.00
2018-11-25T06:18:20.681Z,100.00
2018-11-25T06:19:25.695Z,100.00
2018-11-25T06:20:30.352Z,100.00
2018-11-25T06:21:35.020Z,100.00
2018-11-25T06:22:39.596Z,100.00
2018-11-25T06:23:44.147Z,100.00
2018-11-25T06:24:48.679Z,100.00
2018-11-25T06:25:53.590Z,100.00
2018-11-25T06:26:58.322Z,100.00
2018-11-25T06:28:02.932Z,100.00
2018-11-25T06:29:07.517Z,100.00
2018-11-25T06:30:12.721Z,100.00
2018-11-25T06:31:17.256Z,100.00
2018-11-25T06:32:22.134Z,100.00
2018-11-25T06:33:26.664Z,100.00
2018-11-25T07:15:49.543Z,100.00
2018-11-25T07:16:54.270Z,100.00
2018-11-25T07:17:59.139Z,100.00
2018-11-25T07:19:04.040Z,100.00
2018-11-25T07:20:09.487Z,100.00
2018-11-25T07:21:14.465Z,100.00
2018-11-25T07:22:19.226Z,100.00
2018-11-25T07:23:23.958Z,100.00
2018-11-25T07:24:28.691Z,100.00
2018-11-25T07:25:33.482Z,100.00
2018-11-25T07:26:38.418Z,100.00
2018-11-25T07:27:43.391Z,100.00
2018-11-25T07:28:48.086Z,100.00
2018-11-25T07:29:52.716Z,100.00
2018-11-25T07:30:57.368Z,100.00
2018-11-25T07:32:02.031Z,100.00
2018-11-25T07:33:06.579Z,100.00
2018-11-25T07:34:11.525Z,100.00
2018-11-25T07:35:16.175Z,100.00
2018-11-25T07:36:20.887Z,100.00
2018-11-25T07:37:28.550Z,100.00
2018-11-25T07:38:37.902Z,100.00
2018-11-25T07:39:46.202Z,100.00
2018-11-25T07:40:53.923Z,100.00
2018-11-25T07:42:00.154Z,100.00
2018-11-25T07:43:06.355Z,100.00
2018-11-25T07:44:13.130Z,100.00
2018-11-25T07:45:19.305Z,100.00
2018-11-25T07:46:24.181Z,100.00
2018-11-25T07:47:30.548Z,100.00
2018-11-25T07:48:35.488Z,100.00
2018-11-25T07:49:40.423Z,100.00
2018-11-25T07:50:46.209Z,100.00
2018-11-25T07:51:51.713Z,100.00
2018-11-25T07:52:59.368Z,100.00
2018-11-25T07:54:04.446Z,100.00
2018-11-25T07:55:12.391Z,100.00
2018-11-25T07:56:16.963Z,100.00
2018-11-25T07:57:21.588Z,100.00
2018-11-25T07:58:26.885Z,100.00
2018-11-25T07:59:31.828Z,100.00
2018-11-25T08:00:37.349Z,100.00
2018-11-25T08:01:43.736Z,100.00
2018-11-25T08:02:50.411Z,100.00
2018-11-25T08:03:55.819Z,100.00
2018-11-25T08:05:01.492Z,100.00
2018-11-25T08:06:06.298Z,100.00
2018-11-25T08:07:11.480Z,100.00
2018-11-25T08:08:16.018Z,100.00
2018-11-25T08:09:21.614Z,100.00
2018-11-25T08:10:27.052Z,100.00
2018-11-25T08:11:31.623Z,100.00
2018-11-25T08:12:36.574Z,100.00
2018-11-25T08:13:41.597Z,100.00
2018-11-25T08:14:48.647Z,100.00
2018-11-25T08:15:54.714Z,100.00
2018-11-25T08:16:59.758Z,100.00
2018-11-25T08:18:05.990Z,100.00
2018-11-25T08:19:13.941Z,100.00
2018-11-25T08:20:21.537Z,100.00
2018-11-25T08:22:41.133Z,100.00
2018-11-25T08:23:48.074Z,100.00
2018-11-25T08:24:52.733Z,100.00
2018-11-25T08:25:58.310Z,100.00
2018-11-25T08:27:02.964Z,100.00
2018-11-25T08:28:08.302Z,100.00
2018-11-25T08:29:13.185Z,100.00
2018-11-25T08:30:20.296Z,100.00
2018-11-25T08:31:25.664Z,100.00
2018-11-25T08:32:31.608Z,100.00
2018-11-25T08:33:37.183Z,100.00
2018-11-25T08:34:42.008Z,100.00
2018-11-25T08:35:47.854Z,100.00
2018-11-25T08:36:53.964Z,100.00
2018-11-25T08:38:00.217Z,100.00
2018-11-25T08:39:05.113Z,100.00
2018-11-25T08:40:11.674Z,100.00
2018-11-25T08:41:16.395Z,100.00
2018-11-25T08:42:21.691Z,100.00
2018-11-25T08:43:27.072Z,100.00
2018-11-25T08:44:32.174Z,100.00
2018-11-25T08:45:36.777Z,100.00
2018-11-25T08:46:42.048Z,100.00
2018-11-25T08:47:46.678Z,100.00
2018-11-25T08:48:52.315Z,100.00
2018-11-25T08:49:57.592Z,100.00
2018-11-25T08:51:04.250Z,100.00
2018-11-25T08:52:08.984Z,100.00
2018-11-25T08:53:13.629Z,100.00
2018-11-25T08:54:19.031Z,100.00
2018-11-25T08:55:24.998Z,100.00
2018-11-25T08:56:30.549Z,100.00
2018-11-25T08:57:37.097Z,100.00
2018-11-25T08:58:42.099Z,100.00
2018-11-25T08:59:46.670Z,100.00
2018-11-25T09:00:51.326Z,100.00
2018-11-25T09:02:01.210Z,100.00
2018-11-25T09:03:09.297Z,100.00
2018-11-25T09:04:14.001Z,100.00
2018-11-25T09:05:19.691Z,100.00
2018-11-25T09:06:25.077Z,100.00
2018-11-25T09:07:29.653Z,100.00
2018-11-25T09:08:36.356Z,100.00
2018-11-25T09:09:41.581Z,100.00
2018-11-25T09:11:57.587Z,100.00
2018-11-25T09:13:03.425Z,100.00
2018-11-25T09:14:10.551Z,100.00
2018-11-25T09:15:15.737Z,100.00
2018-11-25T09:16:21.270Z,100.00
2018-11-25T09:17:26.352Z,100.00
2018-11-25T09:18:31.224Z,100.00
2018-11-25T09:19:36.206Z,100.00
2018-11-25T09:20:40.769Z,100.00
2018-11-25T09:21:46.268Z,100.00
2018-11-25T09:22:51.508Z,100.00
2018-11-25T09:23:56.201Z,100.00
2018-11-25T09:25:01.477Z,100.00
2018-11-25T09:26:06.216Z,100.00
2018-11-25T09:27:10.962Z,100.00
2018-11-25T09:28:15.528Z,100.00
2018-11-25T09:29:20.524Z,100.00
2018-11-25T09:30:25.588Z,100.00
2018-11-25T09:31:30.593Z,100.00
2018-11-25T09:32:36.339Z,100.00
2018-11-25T09:33:41.077Z,100.00
2018-11-25T09:34:46.672Z,100.00
2018-11-25T09:35:51.669Z,100.00
2018-11-25T09:36:56.511Z,100.00
2018-11-25T09:38:01.192Z,100.00
2018-11-25T09:39:08.311Z,100.00
2018-11-25T09:40:13.729Z,100.00
2018-11-25T09:41:19.022Z,100.00
2018-11-25T09:42:24.091Z,100.00
2018-11-25T09:43:28.749Z,100.00
2018-11-25T09:44:34.358Z,100.00
2018-11-25T09:45:38.978Z,100.00
2018-11-25T09:46:44.079Z,100.00
2018-11-25T09:47:49.337Z,100.00
2018-11-25T09:48:55.547Z,100.00
2018-11-25T09:50:00.080Z,100.00
2018-11-25T09:51:04.951Z,100.00
2018-11-25T09:52:10.421Z,100.00
2018-11-25T09:53:15.523Z,100.00
2018-11-25T09:54:20.497Z,100.00
2018-11-25T09:55:26.087Z,100.00
2018-11-25T09:56:30.744Z,100.00
2018-11-25T09:57:35.555Z,100.00
2018-11-25T09:58:40.169Z,100.00
2018-11-25T09:59:45.399Z,100.00
2018-11-25T10:00:50.558Z,100.00
2018-11-25T10:01:55.840Z,100.00
2018-11-25T10:03:00.716Z,100.00
2018-11-25T10:04:06.094Z,100.00
2018-11-25T10:05:14.492Z,100.00
2018-11-25T10:06:19.652Z,100.00
2018-11-25T10:07:24.311Z,100.00
2018-11-25T10:08:30.325Z,100.00
2018-11-25T10:09:36.407Z,100.00
2018-11-25T10:10:41.116Z,100.00
2018-11-25T10:11:46.132Z,100.00
2018-11-25T10:12:51.540Z,100.00
2018-11-25T10:13:56.381Z,100.00
2018-11-25T10:15:02.256Z,100.00
2018-11-25T10:16:07.037Z,100.00
2018-11-25T10:17:12.685Z,100.00
2018-11-25T10:18:17.350Z,100.00
2018-11-25T10:19:22.296Z,100.00
2018-11-25T10:20:27.466Z,100.00
2018-11-25T10:21:33.619Z,100.00
2018-11-25T10:22:39.242Z,100.00
2018-11-25T10:23:45.099Z,100.00
2018-11-25T10:24:50.131Z,100.00
2018-11-25T10:25:55.247Z,100.00
2018-11-25T10:27:01.057Z,100.00
2018-11-25T10:28:06.484Z,100.00
2018-11-25T10:29:11.098Z,100.00
2018-11-25T10:30:16.132Z,100.00
2018-11-25T10:31:21.824Z,100.00
2018-11-25T10:32:26.853Z,100.00
2018-11-25T10:33:32.593Z,100.00
2018-11-25T10:34:39.308Z,100.00
2018-11-25T10:35:43.925Z,100.00
2018-11-25T10:36:48.634Z,100.00
2018-11-25T10:37:55.260Z,100.00
2018-11-25T10:39:00.397Z,100.00
2018-11-25T10:40:05.961Z,100.00
2018-11-25T10:41:13.076Z,100.00
2018-11-25T10:42:18.634Z,100.00
2018-11-25T10:43:24.841Z,100.00
2018-11-25T10:44:32.407Z,100.00
2018-11-25T10:45:37.020Z,100.00
2018-11-25T10:46:41.613Z,100.00
2018-11-25T10:47:47.459Z,100.00
2018-11-25T10:48:54.816Z,100.00
2018-11-25T10:50:00.830Z,100.00
2018-11-25T10:51:06.328Z,100.00
2018-11-25T10:52:10.937Z,100.00
2018-11-25T10:53:17.270Z,100.00
2018-11-25T10:54:22.772Z,100.00
2018-11-25T10:55:27.389Z,100.00
2018-11-25T10:56:31.970Z,100.00
2018-11-25T10:57:36.816Z,100.00
2018-11-25T10:58:41.492Z,100.00
2018-11-25T10:59:46.109Z,100.00
2018-11-25T11:00:59.713Z,100.00
2018-11-25T11:02:11.556Z,100.00
2018-11-25T11:03:22.677Z,100.00
2018-11-25T11:04:32.773Z,100.00
2018-11-25T11:05:42.476Z,100.00
2018-11-25T11:06:52.841Z,100.00
2018-11-25T11:07:57.607Z,100.00
2018-11-25T11:09:05.480Z,100.00
2018-11-25T11:10:11.799Z,100.00
2018-11-25T11:11:23.317Z,100.00
2018-11-25T11:12:28.535Z,100.00
2018-11-25T11:13:33.957Z,100.00
2018-11-25T11:14:39.501Z,100.00
2018-11-25T11:15:45.736Z,100.00
2018-11-25T11:16:53.963Z,100.00
2018-11-25T11:17:57.524Z,100.00
2018-11-25T11:19:04.661Z,100.00
2018-11-25T11:20:10.374Z,100.00
2018-11-25T11:21:15.280Z,100.00
2018-11-25T11:22:22.480Z,100.00
2018-11-25T11:24:38.742Z,100.00
2018-11-25T11:25:44.857Z,100.00
2018-11-25T11:26:50.500Z,100.00
2018-11-25T11:27:55.399Z,100.00
2018-11-25T11:29:00.303Z,100.00
2018-11-25T11:42:57.516Z,100.00
2018-11-25T11:44:02.375Z,100.00
2018-11-25T11:45:08.399Z,100.00
2018-11-25T11:46:13.894Z,100.00
2018-11-25T11:48:29.463Z,100.00
2018-11-25T11:49:35.539Z,100.00
2018-11-25T11:50:40.890Z,100.00
2018-11-25T11:51:45.646Z,100.00
2018-11-25T11:52:50.558Z,100.00
2018-11-25T11:53:59.013Z,100.00
2018-11-25T11:55:07.365Z,100.00
2018-11-25T11:56:16.737Z,100.00
2018-11-25T11:57:22.925Z,100.00
2018-11-25T11:58:28.775Z,100.00
2018-11-25T11:59:33.487Z,100.00
2018-11-25T12:00:40.098Z,100.00
2018-11-25T12:01:45.161Z,100.00
2018-11-25T12:02:49.825Z,100.00
2018-11-25T12:03:54.707Z,100.00
2018-11-25T12:04:59.916Z,100.00
2018-11-25T12:06:05.646Z,100.00
2018-11-25T12:07:10.954Z,100.00
2018-11-25T12:08:16.059Z,100.00
2018-11-25T12:09:20.834Z,100.00
2018-11-25T12:10:26.499Z,100.00
2018-11-25T12:11:32.053Z,100.00
2018-11-25T12:12:37.589Z,100.00
2018-11-25T12:13:44.062Z,100.00
2018-11-25T12:14:50.292Z,100.00
2018-11-25T12:15:55.868Z,100.00
2018-11-25T12:17:00.740Z,100.00
2018-11-25T12:18:06.169Z,100.00
2018-11-25T12:19:11.097Z,100.00
2018-11-25T12:20:16.205Z,100.00
2018-11-25T12:21:22.766Z,100.00
2018-11-25T12:22:28.148Z,100.00
2018-11-25T12:23:33.255Z,100.00
2018-11-25T12:24:39.252Z,100.00
2018-11-25T12:25:44.956Z,100.00
2018-11-25T12:26:50.364Z,100.00
2018-11-25T12:27:55.187Z,100.00
2018-11-25T12:29:02.054Z,100.00
2018-11-25T12:30:08.829Z,100.00
2018-11-25T12:31:16.862Z,100.00
2018-11-25T12:32:22.472Z,100.00
2018-11-25T12:33:30.292Z,99.62
2018-11-25T12:34:34.976Z,99.41
2018-11-25T12:35:41.880Z,99.28
2018-11-25T12:36:46.452Z,98.68
2018-11-25T12:37:52.722Z,98.95
2018-11-25T12:38:58.579Z,98.85
2018-11-25T12:40:07.471Z,99.07
2018-11-25T12:41:14.399Z,98.93
2018-11-25T12:42:19.127Z,99.17
2018-11-25T12:43:25.941Z,98.64
2018-11-25T12:44:31.315Z,98.41
2018-11-25T12:45:37.079Z,97.91
2018-11-25T12:46:43.815Z,98.11
2018-11-25T12:47:52.632Z,98.29
2018-11-25T12:48:57.845Z,98.61
2018-11-25T12:50:03.365Z,98.86
2018-11-25T12:51:09.828Z,98.06
2018-11-25T12:52:16.067Z,98.17
2018-11-25T12:53:23.184Z,98.59
2018-11-25T12:54:27.812Z,98.65
2018-11-25T12:55:33.060Z,99.01
2018-11-25T12:56:38.591Z,98.62
2018-11-25T12:57:44.446Z,98.95
2018-11-25T12:58:49.959Z,98.67
2018-11-25T12:59:56.806Z,99.00
2018-11-25T13:01:02.132Z,99.23
2018-11-25T13:02:07.189Z,99.03
2018-11-25T13:03:14.962Z,99.25
2018-11-25T13:04:20.584Z,98.54
2018-11-25T13:05:26.257Z,98.47
2018-11-25T13:06:32.554Z,98.80
2018-11-25T13:07:38.856Z,98.32
2018-11-25T13:08:45.256Z,98.26
2018-11-25T13:09:50.422Z,97.96
2018-11-25T13:10:55.507Z,97.91
2018-11-25T13:12:00.504Z,97.59
2018-11-25T13:13:05.594Z,97.06
2018-11-25T13:14:10.744Z,96.31
2018-11-25T13:15:15.651Z,96.11
2018-11-25T13:16:20.800Z,95.09
2018-11-25T13:17:27.311Z,95.22
2018-11-25T13:18:32.421Z,95.43
2018-11-25T13:19:37.189Z,94.21
2018-11-25T13:20:43.143Z,94.33
2018-11-25T13:21:47.965Z,94.33
2018-11-25T13:22:52.614Z,94.85
2018-11-25T13:23:59.280Z,94.86
2018-11-25T13:25:05.333Z,95.14
2018-11-25T13:26:10.794Z,95.65
2018-11-25T13:27:15.653Z,96.03
2018-11-25T13:28:23.060Z,96.49
2018-11-25T13:29:29.405Z,95.82
2018-11-25T13:30:34.055Z,96.07
2018-11-25T13:31:40.438Z,95.88
2018-11-25T13:32:49.465Z,96.11
2018-11-25T13:33:54.289Z,96.26
2018-11-25T13:35:01.796Z,96.49
2018-11-25T13:36:09.733Z,96.67
2018-11-25T13:37:15.174Z,96.57
2018-11-25T13:38:21.605Z,96.40
2018-11-25T13:39:26.887Z,96.36
2018-11-25T13:40:32.835Z,96.01
2018-11-25T13:41:38.701Z,97.05
2018-11-25T13:42:44.151Z,97.31
2018-11-25T13:43:49.265Z,96.77
2018-11-25T13:44:53.492Z,96.48
2018-11-25T13:46:00.274Z,96.71
2018-11-25T13:47:06.622Z,95.95
2018-11-25T13:48:11.902Z,96.51
2018-11-25T13:49:17.113Z,96.60
2018-11-25T13:50:23.111Z,96.17
2018-11-25T13:51:28.684Z,95.57
2018-11-25T13:52:33.873Z,95.37
2018-11-25T13:53:40.797Z,96.03
2018-11-25T13:54:46.775Z,95.99
2018-11-25T13:55:51.720Z,95.81
2018-11-25T13:56:58.826Z,96.21
2018-11-25T13:58:06.062Z,95.82
2018-11-25T13:59:11.842Z,95.39
2018-11-25T14:00:48.790Z,94.81
2018-11-25T14:01:56.531Z,100.00
2018-11-25T14:03:02.556Z,94.94
2018-11-25T14:04:07.824Z,94.95
2018-11-25T14:05:13.008Z,94.85
2018-11-25T14:06:18.339Z,94.59
2018-11-25T14:07:24.160Z,100.00
2018-11-25T14:08:28.877Z,100.00
2018-11-25T14:09:33.910Z,94.66
2018-11-25T14:10:38.993Z,94.98
2018-11-25T14:11:44.292Z,94.98
2018-11-25T14:12:49.890Z,95.18
2018-11-25T14:13:56.300Z,100.00
2018-11-25T14:15:02.134Z,100.00
2018-11-25T14:16:08.125Z,94.35
2018-11-25T14:17:15.113Z,94.47
2018-11-25T14:18:20.484Z,98.29
2018-11-25T14:19:25.243Z,100.00
2018-11-25T15:00:59.988Z,84.00
2018-11-25T15:06:28.905Z,100.00
2018-11-25T15:07:27.498Z,100.00
2018-11-25T17:42:59.369Z,92.95
2018-11-25T17:44:05.332Z,92.96
2018-11-25T17:45:13.922Z,93.02
2018-11-25T17:46:19.398Z,92.92
2018-11-25T17:47:24.737Z,92.88
2018-11-25T17:48:29.979Z,92.92
2018-11-25T17:49:37.667Z,92.85
2018-11-25T17:50:42.477Z,93.04
2018-11-25T17:51:47.655Z,92.98
2018-11-25T17:52:53.022Z,92.82
2018-11-25T17:53:59.408Z,92.79
2018-11-25T17:55:04.467Z,92.83
2018-11-25T17:56:11.069Z,92.95
2018-11-25T17:57:16.108Z,93.01